sensor_id;sensor_type;location;lat;lon;timestamp;temperature;humidity
40696;DHT22;40425;51.102;17.208;2023-05-07T00:03:12;8.80;99.90
40696;DHT22;40425;51.102;17.208;2023-05-07T00:08:14;8.80;99.90
40696;DHT22;40425;51.102;17.208;2023-05-07T00:13:16;8.90;99.90
40696;DHT22;40425;51.102;17.208;2023-05-07T00:18:17;8.90;99.90
40696;DHT22;40425;51.102;17.208;2023-05-07T00:23:21;8.80;99.90
40696;DHT22;40425;51.102;17.208;2023-05-07T00:28:22;8.80;99.90
40696;DHT22;40425;51.102;17.208;2023-05-07T00:33:23;8.90;99.90
40696;DHT22;40425;51.102;17.208;2023-05-07T00:38:24;8.90;99.90
40696;DHT22;40425;51.102;17.208;2023-05-07T00:43:25;8.90;99.90
40696;DHT22;40425;51.102;17.208;2023-05-07T00:48:26;8.90;99.90
40696;DHT22;40425;51.102;17.208;2023-05-07T00:53:27;8.90;99.90
40696;DHT22;40425;51.102;17.208;2023-05-07T00:58:28;8.90;99.90
40696;DHT22;40425;51.102;17.208;2023-05-07T01:03:30;8.90;99.90
40696;DHT22;40425;51.102;17.208;2023-05-07T01:08:32;8.80;99.90
40696;DHT22;40425;51.102;17.208;2023-05-07T01:13:34;8.90;99.90
40696;DHT22;40425;51.102;17.208;2023-05-07T01:18:35;8.80;99.90
40696;DHT22;40425;51.102;17.208;2023-05-07T01:23:36;8.70;99.90
40696;DHT22;40425;51.102;17.208;2023-05-07T01:28:37;8.70;99.90
40696;DHT22;40425;51.102;17.208;2023-05-07T01:33:40;8.70;99.90
40696;DHT22;40425;51.102;17.208;2023-05-07T01:38:43;8.70;99.90
40696;DHT22;40425;51.102;17.208;2023-05-07T01:43:46;8.70;99.90
40696;DHT22;40425;51.102;17.208;2023-05-07T01:48:48;8.70;99.90
40696;DHT22;40425;51.102;17.208;2023-05-07T01:53:49;8.60;99.90
40696;DHT22;40425;51.102;17.208;2023-05-07T01:58:52;8.60;99.90
40696;DHT22;40425;51.102;17.208;2023-05-07T02:03:53;8.60;99.90
40696;DHT22;40425;51.102;17.208;2023-05-07T02:08:54;8.50;99.90
40696;DHT22;40425;51.102;17.208;2023-05-07T02:13:55;8.60;99.90
40696;DHT22;40425;51.102;17.208;2023-05-07T02:18:56;8.50;99.90
40696;DHT22;40425;51.102;17.208;2023-05-07T02:23:57;8.50;99.90
40696;DHT22;40425;51.102;17.208;2023-05-07T02:28:57;8.60;99.90
40696;DHT22;40425;51.102;17.208;2023-05-07T02:33:58;8.40;99.90
40696;DHT22;40425;51.102;17.208;2023-05-07T02:38:59;8.40;99.90
40696;DHT22;40425;51.102;17.208;2023-05-07T02:44:00;8.40;99.90
40696;DHT22;40425;51.102;17.208;2023-05-07T02:49:01;8.40;99.90
40696;DHT22;40425;51.102;17.208;2023-05-07T02:54:02;8.30;99.90
40696;DHT22;40425;51.102;17.208;2023-05-07T02:59:03;8.30;99.90
40696;DHT22;40425;51.102;17.208;2023-05-07T03:04:04;8.30;99.90
40696;DHT22;40425;51.102;17.208;2023-05-07T03:09:05;8.30;99.90
40696;DHT22;40425;51.102;17.208;2023-05-07T03:14:06;8.20;99.90
40696;DHT22;40425;51.102;17.208;2023-05-07T03:19:07;8.40;99.90
40696;DHT22;40425;51.102;17.208;2023-05-07T03:24:07;8.40;99.90
40696;DHT22;40425;51.102;17.208;2023-05-07T03:29:08;8.40;99.90
40696;DHT22;40425;51.102;17.208;2023-05-07T03:34:09;8.40;99.90
40696;DHT22;40425;51.102;17.208;2023-05-07T03:39:10;8.40;99.90
40696;DHT22;40425;51.102;17.208;2023-05-07T03:44:11;8.30;99.90
40696;DHT22;40425;51.102;17.208;2023-05-07T03:49:12;8.30;99.90
40696;DHT22;40425;51.102;17.208;2023-05-07T03:54:12;8.20;99.90
40696;DHT22;40425;51.102;17.208;2023-05-07T03:59:13;8.20;99.90
40696;DHT22;40425;51.102;17.208;2023-05-07T04:04:15;8.20;99.90
40696;DHT22;40425;51.102;17.208;2023-05-07T04:09:16;8.30;99.90
40696;DHT22;40425;51.102;17.208;2023-05-07T04:14:17;8.30;99.90
40696;DHT22;40425;51.102;17.208;2023-05-07T04:19:18;8.40;99.90
40696;DHT22;40425;51.102;17.208;2023-05-07T04:24:18;8.30;99.90
40696;DHT22;40425;51.102;17.208;2023-05-07T04:29:19;8.30;99.90
40696;DHT22;40425;51.102;17.208;2023-05-07T04:34:21;8.40;99.90
40696;DHT22;40425;51.102;17.208;2023-05-07T04:39:22;8.50;99.90
40696;DHT22;40425;51.102;17.208;2023-05-07T04:44:23;8.60;99.90
40696;DHT22;40425;51.102;17.208;2023-05-07T04:49:24;8.60;99.90
40696;DHT22;40425;51.102;17.208;2023-05-07T04:54:25;8.70;99.90
40696;DHT22;40425;51.102;17.208;2023-05-07T04:59:27;8.60;99.90
40696;DHT22;40425;51.102;17.208;2023-05-07T05:04:27;8.40;99.90
40696;DHT22;40425;51.102;17.208;2023-05-07T05:09:28;8.50;99.90
40696;DHT22;40425;51.102;17.208;2023-05-07T05:14:29;8.50;99.90
40696;DHT22;40425;51.102;17.208;2023-05-07T05:19:30;8.50;99.90
40696;DHT22;40425;51.102;17.208;2023-05-07T05:24:31;8.50;99.90
40696;DHT22;40425;51.102;17.208;2023-05-07T05:29:32;8.60;99.90
40696;DHT22;40425;51.102;17.208;2023-05-07T05:34:33;8.80;99.90
40696;DHT22;40425;51.102;17.208;2023-05-07T05:39:34;8.70;99.90
40696;DHT22;40425;51.102;17.208;2023-05-07T05:44:35;8.70;99.90
40696;DHT22;40425;51.102;17.208;2023-05-07T05:49:35;8.70;99.90
40696;DHT22;40425;51.102;17.208;2023-05-07T05:54:36;8.70;99.90
40696;DHT22;40425;51.102;17.208;2023-05-07T05:59:37;8.80;99.90
40696;DHT22;40425;51.102;17.208;2023-05-07T06:04:38;9.00;99.90
40696;DHT22;40425;51.102;17.208;2023-05-07T06:09:39;8.80;99.90
40696;DHT22;40425;51.102;17.208;2023-05-07T06:14:42;9.00;99.90
40696;DHT22;40425;51.102;17.208;2023-05-07T06:19:43;9.10;99.90
40696;DHT22;40425;51.102;17.208;2023-05-07T06:24:44;9.00;99.90
40696;DHT22;40425;51.102;17.208;2023-05-07T06:29:44;8.90;99.90
40696;DHT22;40425;51.102;17.208;2023-05-07T06:34:45;8.50;99.90
40696;DHT22;40425;51.102;17.208;2023-05-07T06:39:46;8.30;99.90
40696;DHT22;40425;51.102;17.208;2023-05-07T06:44:47;8.40;99.90
40696;DHT22;40425;51.102;17.208;2023-05-07T06:49:48;8.40;99.90
40696;DHT22;40425;51.102;17.208;2023-05-07T06:54:49;8.50;99.90
40696;DHT22;40425;51.102;17.208;2023-05-07T06:59:50;8.50;99.90
40696;DHT22;40425;51.102;17.208;2023-05-07T07:04:50;8.60;99.90
40696;DHT22;40425;51.102;17.208;2023-05-07T07:09:51;8.80;99.90
40696;DHT22;40425;51.102;17.208;2023-05-07T07:14:52;9.00;99.90
40696;DHT22;40425;51.102;17.208;2023-05-07T07:19:53;9.30;99.90
40696;DHT22;40425;51.102;17.208;2023-05-07T07:24:54;9.10;99.90
40696;DHT22;40425;51.102;17.208;2023-05-07T07:29:55;9.00;99.90
40696;DHT22;40425;51.102;17.208;2023-05-07T07:34:56;8.90;99.90
40696;DHT22;40425;51.102;17.208;2023-05-07T07:39:56;8.70;99.90
40696;DHT22;40425;51.102;17.208;2023-05-07T07:44:57;8.60;99.90
40696;DHT22;40425;51.102;17.208;2023-05-07T07:49:58;8.80;99.90
40696;DHT22;40425;51.102;17.208;2023-05-07T07:54:59;8.60;99.90
40696;DHT22;40425;51.102;17.208;2023-05-07T08:00:00;8.50;99.90
40696;DHT22;40425;51.102;17.208;2023-05-07T08:05:01;8.40;99.90
40696;DHT22;40425;51.102;17.208;2023-05-07T08:10:02;8.50;99.90
40696;DHT22;40425;51.102;17.208;2023-05-07T08:15:03;8.60;99.90
40696;DHT22;40425;51.102;17.208;2023-05-07T08:20:06;8.70;99.90
40696;DHT22;40425;51.102;17.208;2023-05-07T08:25:07;8.70;99.90
40696;DHT22;40425;51.102;17.208;2023-05-07T08:30:09;8.80;99.90
40696;DHT22;40425;51.102;17.208;2023-05-07T08:35:10;8.80;99.90
40696;DHT22;40425;51.102;17.208;2023-05-07T08:40:11;8.60;99.90
40696;DHT22;40425;51.102;17.208;2023-05-07T08:45:13;8.50;99.90
40696;DHT22;40425;51.102;17.208;2023-05-07T08:50:14;8.60;99.90
40696;DHT22;40425;51.102;17.208;2023-05-07T08:55:15;8.70;99.90
40696;DHT22;40425;51.102;17.208;2023-05-07T09:00:16;9.10;99.90
40696;DHT22;40425;51.102;17.208;2023-05-07T09:05:17;9.00;99.90
40696;DHT22;40425;51.102;17.208;2023-05-07T09:10:21;9.10;99.90
40696;DHT22;40425;51.102;17.208;2023-05-07T09:15:22;9.20;99.90
40696;DHT22;40425;51.102;17.208;2023-05-07T09:20:23;9.10;99.90
40696;DHT22;40425;51.102;17.208;2023-05-07T09:25:31;9.10;99.90
40696;DHT22;40425;51.102;17.208;2023-05-07T09:30:33;9.30;99.90
40696;DHT22;40425;51.102;17.208;2023-05-07T09:35:35;9.40;99.90
40696;DHT22;40425;51.102;17.208;2023-05-07T09:40:36;9.50;99.90
40696;DHT22;40425;51.102;17.208;2023-05-07T09:45:37;9.60;99.90
40696;DHT22;40425;51.102;17.208;2023-05-07T09:50:51;10.20;99.90
40696;DHT22;40425;51.102;17.208;2023-05-07T09:55:53;10.40;99.90
40696;DHT22;40425;51.102;17.208;2023-05-07T10:00:54;10.30;99.90
40696;DHT22;40425;51.102;17.208;2023-05-07T10:05:58;10.10;99.90
40696;DHT22;40425;51.102;17.208;2023-05-07T10:10:59;10.30;99.90
40696;DHT22;40425;51.102;17.208;2023-05-07T10:16:01;10.90;99.90
40696;DHT22;40425;51.102;17.208;2023-05-07T10:21:08;11.30;99.90
40696;DHT22;40425;51.102;17.208;2023-05-07T10:26:09;11.40;99.90
40696;DHT22;40425;51.102;17.208;2023-05-07T10:36:30;10.70;99.90
40696;DHT22;40425;51.102;17.208;2023-05-07T10:41:31;10.40;99.90
40696;DHT22;40425;51.102;17.208;2023-05-07T10:46:32;10.50;99.90
40696;DHT22;40425;51.102;17.208;2023-05-07T10:51:36;10.40;99.90
40696;DHT22;40425;51.102;17.208;2023-05-07T10:56:38;10.70;99.90
40696;DHT22;40425;51.102;17.208;2023-05-07T11:12:07;11.10;99.90
40696;DHT22;40425;51.102;17.208;2023-05-07T11:17:09;11.00;99.90
40696;DHT22;40425;51.102;17.208;2023-05-07T11:27:33;11.30;99.90
40696;DHT22;40425;51.102;17.208;2023-05-07T11:32:35;11.00;99.90
40696;DHT22;40425;51.102;17.208;2023-05-07T11:37:36;10.90;99.90
40696;DHT22;40425;51.102;17.208;2023-05-07T11:42:40;10.90;99.90
40696;DHT22;40425;51.102;17.208;2023-05-07T11:47:43;11.10;99.90
40696;DHT22;40425;51.102;17.208;2023-05-07T11:52:51;10.80;99.90
40696;DHT22;40425;51.102;17.208;2023-05-07T11:57:52;10.60;99.90
40696;DHT22;40425;51.102;17.208;2023-05-07T12:02:53;10.50;99.90
40696;DHT22;40425;51.102;17.208;2023-05-07T12:07:57;10.40;99.90
40696;DHT22;40425;51.102;17.208;2023-05-07T12:12:58;10.60;99.90
40696;DHT22;40425;51.102;17.208;2023-05-07T12:17:59;10.70;99.90
40696;DHT22;40425;51.102;17.208;2023-05-07T12:23:01;10.70;99.90
40696;DHT22;40425;51.102;17.208;2023-05-07T12:28:02;10.90;99.90
40696;DHT22;40425;51.102;17.208;2023-05-07T12:33:05;10.90;99.90
40696;DHT22;40425;51.102;17.208;2023-05-07T12:38:14;11.10;99.90
40696;DHT22;40425;51.102;17.208;2023-05-07T12:43:24;11.10;99.90
40696;DHT22;40425;51.102;17.208;2023-05-07T12:48:25;10.90;99.90
40696;DHT22;40425;51.102;17.208;2023-05-07T12:53:28;10.60;99.90
40696;DHT22;40425;51.102;17.208;2023-05-07T12:58:30;10.70;99.90
40696;DHT22;40425;51.102;17.208;2023-05-07T13:03:33;10.90;99.90
40696;DHT22;40425;51.102;17.208;2023-05-07T13:08:36;10.70;99.90
40696;DHT22;40425;51.102;17.208;2023-05-07T13:13:46;10.40;99.90
40696;DHT22;40425;51.102;17.208;2023-05-07T13:18:47;10.40;99.90
40696;DHT22;40425;51.102;17.208;2023-05-07T13:23:48;10.50;99.90
40696;DHT22;40425;51.102;17.208;2023-05-07T13:28:49;10.80;99.90
40696;DHT22;40425;51.102;17.208;2023-05-07T13:33:50;10.90;99.90
40696;DHT22;40425;51.102;17.208;2023-05-07T13:38:51;10.60;99.90
40696;DHT22;40425;51.102;17.208;2023-05-07T13:43:53;10.40;99.90
40696;DHT22;40425;51.102;17.208;2023-05-07T13:48:54;10.20;99.90
40696;DHT22;40425;51.102;17.208;2023-05-07T13:53:55;10.30;99.90
40696;DHT22;40425;51.102;17.208;2023-05-07T13:58:58;10.40;99.90
40696;DHT22;40425;51.102;17.208;2023-05-07T14:03:59;10.50;99.90
40696;DHT22;40425;51.102;17.208;2023-05-07T14:09:01;10.20;99.90
40696;DHT22;40425;51.102;17.208;2023-05-07T14:14:02;10.20;99.90
40696;DHT22;40425;51.102;17.208;2023-05-07T14:19:03;10.40;99.90
40696;DHT22;40425;51.102;17.208;2023-05-07T14:24:06;10.60;99.90
40696;DHT22;40425;51.102;17.208;2023-05-07T14:29:08;10.50;99.90
40696;DHT22;40425;51.102;17.208;2023-05-07T14:34:10;10.60;99.90
40696;DHT22;40425;51.102;17.208;2023-05-07T14:39:11;10.80;99.90
40696;DHT22;40425;51.102;17.208;2023-05-07T14:44:12;10.50;99.90
40696;DHT22;40425;51.102;17.208;2023-05-07T14:49:14;10.30;99.90
40696;DHT22;40425;51.102;17.208;2023-05-07T14:54:18;10.50;99.90
40696;DHT22;40425;51.102;17.208;2023-05-07T14:59:20;10.50;99.90
40696;DHT22;40425;51.102;17.208;2023-05-07T15:04:22;10.70;99.90
40696;DHT22;40425;51.102;17.208;2023-05-07T15:09:24;10.90;99.90
40696;DHT22;40425;51.102;17.208;2023-05-07T15:14:26;10.90;99.90
40696;DHT22;40425;51.102;17.208;2023-05-07T15:19:27;10.90;99.90
40696;DHT22;40425;51.102;17.208;2023-05-07T15:24:30;10.70;99.90
40696;DHT22;40425;51.102;17.208;2023-05-07T15:29:32;10.60;99.90
40696;DHT22;40425;51.102;17.208;2023-05-07T15:34:33;10.50;99.90
40696;DHT22;40425;51.102;17.208;2023-05-07T15:39:35;10.60;99.90
40696;DHT22;40425;51.102;17.208;2023-05-07T15:44:38;10.60;99.90
40696;DHT22;40425;51.102;17.208;2023-05-07T15:49:43;10.70;99.90
40696;DHT22;40425;51.102;17.208;2023-05-07T15:54:44;10.40;99.90
40696;DHT22;40425;51.102;17.208;2023-05-07T15:59:50;10.30;99.90
40696;DHT22;40425;51.102;17.208;2023-05-07T16:04:52;10.30;99.90
40696;DHT22;40425;51.102;17.208;2023-05-07T16:09:53;10.40;99.90
40696;DHT22;40425;51.102;17.208;2023-05-07T16:14:55;10.30;99.90
40696;DHT22;40425;51.102;17.208;2023-05-07T16:19:57;10.30;99.90
40696;DHT22;40425;51.102;17.208;2023-05-07T16:24:59;10.10;99.90
40696;DHT22;40425;51.102;17.208;2023-05-07T16:30:01;10.30;99.90
40696;DHT22;40425;51.102;17.208;2023-05-07T16:35:03;10.20;99.90
40696;DHT22;40425;51.102;17.208;2023-05-07T16:40:05;10.10;99.90
40696;DHT22;40425;51.102;17.208;2023-05-07T16:45:08;10.20;99.90
40696;DHT22;40425;51.102;17.208;2023-05-07T16:50:10;10.10;99.90
40696;DHT22;40425;51.102;17.208;2023-05-07T16:55:12;10.00;99.90
40696;DHT22;40425;51.102;17.208;2023-05-07T17:00:14;10.00;99.90
40696;DHT22;40425;51.102;17.208;2023-05-07T17:05:16;10.00;99.90
40696;DHT22;40425;51.102;17.208;2023-05-07T17:10:19;9.90;99.90
40696;DHT22;40425;51.102;17.208;2023-05-07T17:15:20;9.90;99.90
40696;DHT22;40425;51.102;17.208;2023-05-07T17:20:22;9.90;99.90
40696;DHT22;40425;51.102;17.208;2023-05-07T17:25:23;9.90;99.90
40696;DHT22;40425;51.102;17.208;2023-05-07T17:30:25;10.00;99.90
40696;DHT22;40425;51.102;17.208;2023-05-07T17:35:27;9.90;99.90
40696;DHT22;40425;51.102;17.208;2023-05-07T17:40:31;9.80;99.90
40696;DHT22;40425;51.102;17.208;2023-05-07T17:45:32;9.80;99.90
40696;DHT22;40425;51.102;17.208;2023-05-07T17:50:33;9.70;99.90
40696;DHT22;40425;51.102;17.208;2023-05-07T17:55:34;9.80;99.90
40696;DHT22;40425;51.102;17.208;2023-05-07T18:00:39;9.80;99.90
40696;DHT22;40425;51.102;17.208;2023-05-07T18:05:40;9.80;99.90
40696;DHT22;40425;51.102;17.208;2023-05-07T18:10:41;9.80;99.90
40696;DHT22;40425;51.102;17.208;2023-05-07T18:15:44;9.70;99.90
40696;DHT22;40425;51.102;17.208;2023-05-07T18:20:49;9.60;99.90
40696;DHT22;40425;51.102;17.208;2023-05-07T18:25:53;9.50;99.90
40696;DHT22;40425;51.102;17.208;2023-05-07T18:30:54;9.50;99.90
40696;DHT22;40425;51.102;17.208;2023-05-07T18:35:55;9.40;99.90
40696;DHT22;40425;51.102;17.208;2023-05-07T18:41:01;9.40;99.90
40696;DHT22;40425;51.102;17.208;2023-05-07T18:46:02;9.40;99.90
40696;DHT22;40425;51.102;17.208;2023-05-07T18:51:05;9.40;99.90
40696;DHT22;40425;51.102;17.208;2023-05-07T18:56:12;9.40;99.90
40696;DHT22;40425;51.102;17.208;2023-05-07T19:01:14;9.40;99.90
40696;DHT22;40425;51.102;17.208;2023-05-07T19:06:16;9.40;99.90
40696;DHT22;40425;51.102;17.208;2023-05-07T19:11:18;9.40;99.90
40696;DHT22;40425;51.102;17.208;2023-05-07T19:16:19;9.40;99.90
40696;DHT22;40425;51.102;17.208;2023-05-07T19:21:21;9.40;99.90
40696;DHT22;40425;51.102;17.208;2023-05-07T19:26:23;9.30;99.90
40696;DHT22;40425;51.102;17.208;2023-05-07T19:31:25;9.20;99.90
40696;DHT22;40425;51.102;17.208;2023-05-07T19:36:27;9.20;99.90
40696;DHT22;40425;51.102;17.208;2023-05-07T19:41:30;9.20;99.90
40696;DHT22;40425;51.102;17.208;2023-05-07T19:46:32;9.20;99.90
40696;DHT22;40425;51.102;17.208;2023-05-07T19:51:34;9.20;99.90
40696;DHT22;40425;51.102;17.208;2023-05-07T19:56:38;9.20;99.90
40696;DHT22;40425;51.102;17.208;2023-05-07T20:01:41;9.20;99.90
40696;DHT22;40425;51.102;17.208;2023-05-07T20:06:42;9.20;99.90
40696;DHT22;40425;51.102;17.208;2023-05-07T20:11:43;9.20;99.90
40696;DHT22;40425;51.102;17.208;2023-05-07T20:16:44;9.20;99.90
40696;DHT22;40425;51.102;17.208;2023-05-07T20:21:45;9.20;99.90
40696;DHT22;40425;51.102;17.208;2023-05-07T20:26:46;9.20;99.90
40696;DHT22;40425;51.102;17.208;2023-05-07T20:31:47;9.20;99.90
40696;DHT22;40425;51.102;17.208;2023-05-07T20:36:48;9.10;99.90
40696;DHT22;40425;51.102;17.208;2023-05-07T20:41:49;9.10;99.90
40696;DHT22;40425;51.102;17.208;2023-05-07T20:46:50;9.10;99.90
40696;DHT22;40425;51.102;17.208;2023-05-07T20:51:53;9.10;99.90
40696;DHT22;40425;51.102;17.208;2023-05-07T20:56:56;8.80;99.90
40696;DHT22;40425;51.102;17.208;2023-05-07T21:01:58;8.60;99.90
40696;DHT22;40425;51.102;17.208;2023-05-07T21:07:00;8.50;99.90
40696;DHT22;40425;51.102;17.208;2023-05-07T21:12:03;8.30;99.90
40696;DHT22;40425;51.102;17.208;2023-05-07T21:17:05;8.10;99.90
40696;DHT22;40425;51.102;17.208;2023-05-07T21:22:07;8.00;99.90
40696;DHT22;40425;51.102;17.208;2023-05-07T21:27:07;7.90;99.90
40696;DHT22;40425;51.102;17.208;2023-05-07T21:32:08;7.80;99.90
40696;DHT22;40425;51.102;17.208;2023-05-07T21:37:09;7.70;99.90
40696;DHT22;40425;51.102;17.208;2023-05-07T21:42:10;7.60;99.90
40696;DHT22;40425;51.102;17.208;2023-05-07T21:47:11;7.40;99.90
40696;DHT22;40425;51.102;17.208;2023-05-07T21:52:13;7.30;99.90
40696;DHT22;40425;51.102;17.208;2023-05-07T21:57:18;7.20;99.90
40696;DHT22;40425;51.102;17.208;2023-05-07T22:02:18;7.10;99.90
40696;DHT22;40425;51.102;17.208;2023-05-07T22:07:19;7.00;99.90
40696;DHT22;40425;51.102;17.208;2023-05-07T22:12:20;7.00;99.90
40696;DHT22;40425;51.102;17.208;2023-05-07T22:17:21;6.90;99.90
40696;DHT22;40425;51.102;17.208;2023-05-07T22:22:23;6.80;99.90
40696;DHT22;40425;51.102;17.208;2023-05-07T22:27:24;6.70;99.90
40696;DHT22;40425;51.102;17.208;2023-05-07T22:32:25;6.60;99.90
40696;DHT22;40425;51.102;17.208;2023-05-07T22:37:26;6.50;99.90
40696;DHT22;40425;51.102;17.208;2023-05-07T22:42:27;6.50;99.90
40696;DHT22;40425;51.102;17.208;2023-05-07T22:47:28;6.40;99.90
40696;DHT22;40425;51.102;17.208;2023-05-07T22:52:30;6.30;99.90
40696;DHT22;40425;51.102;17.208;2023-05-07T22:57:31;6.20;99.90
40696;DHT22;40425;51.102;17.208;2023-05-07T23:02:32;6.20;99.90
40696;DHT22;40425;51.102;17.208;2023-05-07T23:07:33;6.00;99.90
40696;DHT22;40425;51.102;17.208;2023-05-07T23:12:34;6.00;99.90
40696;DHT22;40425;51.102;17.208;2023-05-07T23:17:35;5.80;99.90
40696;DHT22;40425;51.102;17.208;2023-05-07T23:22:35;5.80;99.90
40696;DHT22;40425;51.102;17.208;2023-05-07T23:27:36;5.60;99.90
40696;DHT22;40425;51.102;17.208;2023-05-07T23:32:37;5.50;99.90
40696;DHT22;40425;51.102;17.208;2023-05-07T23:37:38;5.50;99.90
40696;DHT22;40425;51.102;17.208;2023-05-07T23:42:39;5.60;99.90
40696;DHT22;40425;51.102;17.208;2023-05-07T23:47:40;5.50;99.90
40696;DHT22;40425;51.102;17.208;2023-05-07T23:52:41;5.40;99.90
40696;DHT22;40425;51.102;17.208;2023-05-07T23:57:42;5.20;99.90
